Time;durP1;ratioP1;P1;durP2;ratioP2;P2;SDS_P1;SDS_P2;PMS_P1;PMS_P2;Temp;Humidity;BMP_temperature;BMP_pressure;BME280_temperature;BME280_humidity;BME280_pressure;Samples;Min_cycle;Max_cycle;Signal;HPM_P1;HPM_P2
2021/11/10 00:00:16;;;;;;;24.52;11.82;;;9.00;99.90;;;;;;4128508;28;20026;-79
2021/11/10 00:02:17;;;;;;;24.63;12.23;;;8.90;99.90;;;;;;4127882;28;20119;-78
2021/11/10 00:04:19;;;;;;;25.48;12.77;;;9.00;99.90;;;;;;4128534;28;20030;-78
2021/11/10 00:06:20;;;;;;;20.23;10.73;;;9.00;99.90;;;;;;4128520;28;20042;-78
2021/11/10 00:08:21;;;;;;;29.85;12.02;;;9.00;99.90;;;;;;4129058;28;20088;-78
2021/11/10 00:10:21;;;;;;;21.40;12.05;;;9.00;99.90;;;;;;4126701;28;20050;-76
2021/11/10 00:12:22;;;;;;;28.85;13.10;;;9.00;99.90;;;;;;4119508;28;20057;-76
2021/11/10 00:14:24;;;;;;;27.48;12.43;;;9.10;99.90;;;;;;4130226;28;20446;-77
2021/11/10 00:16:25;;;;;;;24.08;12.55;;;9.10;99.90;;;;;;4128363;28;20030;-77
2021/11/10 00:18:25;;;;;;;22.80;12.25;;;9.10;99.90;;;;;;4127771;28;20026;-77
2021/11/10 00:20:26;;;;;;;35.65;12.57;;;9.00;99.90;;;;;;4129179;28;20026;-78
2021/11/10 00:22:27;;;;;;;31.85;13.10;;;9.00;99.90;;;;;;4127778;28;20053;-78
2021/11/10 00:24:27;;;;;;;24.55;13.18;;;9.00;99.90;;;;;;4114427;28;20138;-78
2021/11/10 00:26:28;;;;;;;21.67;13.02;;;9.00;99.90;;;;;;4126668;28;20057;-78
2021/11/10 00:28:29;;;;;;;29.70;12.60;;;9.00;99.90;;;;;;4123116;28;20022;-78
2021/11/10 00:30:29;;;;;;;34.45;14.10;;;9.00;99.90;;;;;;4125641;28;20173;-78
2021/11/10 00:32:30;;;;;;;28.73;12.32;;;9.00;99.90;;;;;;4125336;28;20058;-78
2021/11/10 00:34:31;;;;;;;25.38;12.45;;;9.00;99.90;;;;;;4130672;28;20045;-79
2021/11/10 00:36:31;;;;;;;22.15;12.13;;;8.90;99.90;;;;;;4130957;28;20122;-77
2021/11/10 00:38:32;;;;;;;30.67;12.85;;;8.90;99.90;;;;;;4134464;28;20049;-78
2021/11/10 00:40:33;;;;;;;22.75;12.70;;;8.80;99.90;;;;;;4131639;28;20041;-78
2021/11/10 00:42:33;;;;;;;25.83;12.32;;;8.70;99.90;;;;;;4124285;28;20034;-78
2021/11/10 00:44:34;;;;;;;29.33;13.25;;;8.50;99.90;;;;;;4137581;28;20695;-78
2021/11/10 00:46:35;;;;;;;25.90;13.40;;;8.30;99.90;;;;;;4125128;28;20030;-77
2021/11/10 00:48:35;;;;;;;23.08;12.70;;;8.10;99.90;;;;;;4130514;28;20144;-78
2021/11/10 00:50:37;;;;;;;34.97;13.88;;;7.90;99.90;;;;;;4130407;28;20100;-78
2021/11/10 00:52:37;;;;;;;26.95;12.23;;;7.70;99.90;;;;;;4130970;28;20122;-76
2021/11/10 00:54:38;;;;;;;30.45;15.00;;;7.50;99.90;;;;;;4131928;28;20466;-78
2021/11/10 00:56:39;;;;;;;19.10;12.45;;;7.30;99.90;;;;;;4129746;28;20038;-76
2021/11/10 00:58:39;;;;;;;24.65;13.80;;;7.00;99.90;;;;;;4117459;28;20039;-78
2021/11/10 01:00:40;;;;;;;28.13;13.88;;;6.80;99.90;;;;;;4129124;28;20034;-77
2021/11/10 01:02:41;;;;;;;32.28;15.52;;;6.60;99.90;;;;;;4124572;28;20085;-77
2021/11/10 01:04:41;;;;;;;28.88;15.45;;;6.50;99.90;;;;;;4128528;28;20050;-77
2021/11/10 01:06:42;;;;;;;33.17;15.82;;;6.40;99.90;;;;;;4130666;28;20491;-77
2021/11/10 01:08:44;;;;;;;34.17;15.95;;;6.30;99.90;;;;;;4128964;28;20041;-78
2021/11/10 01:10:45;;;;;;;32.35;15.48;;;6.20;99.90;;;;;;4121027;28;20042;-78
2021/11/10 01:12:47;;;;;;;30.65;14.98;;;6.10;99.90;;;;;;4127201;28;20111;-78
2021/11/10 01:14:48;;;;;;;36.42;20.50;;;6.00;99.90;;;;;;4118879;28;20072;-78
2021/11/10 01:16:49;;;;;;;34.40;17.65;;;5.90;99.90;;;;;;4131784;28;20022;-78
2021/11/10 01:18:49;;;;;;;35.70;17.08;;;5.90;99.90;;;;;;4116892;28;20035;-77
2021/11/10 01:20:50;;;;;;;27.33;16.25;;;5.70;99.90;;;;;;4127253;28;20030;-77
2021/11/10 01:22:50;;;;;;;43.78;19.20;;;5.60;99.90;;;;;;4116363;28;20042;-77
2021/11/10 01:24:51;;;;;;;37.08;18.38;;;5.50;99.90;;;;;;4130064;28;20030;-77
2021/11/10 01:26:52;;;;;;;29.23;16.35;;;5.50;99.90;;;;;;4130998;28;20038;-78
2021/11/10 01:28:53;;;;;;;34.58;17.98;;;5.40;99.90;;;;;;4127209;28;20030;-78
2021/11/10 01:30:54;;;;;;;37.42;17.90;;;5.30;99.90;;;;;;4123529;28;20046;-78
2021/11/10 01:32:54;;;;;;;38.38;18.25;;;5.20;99.90;;;;;;4125121;28;20135;-78
2021/11/10 01:34:55;;;;;;;37.17;18.25;;;5.10;99.90;;;;;;4132317;28;20104;-78
2021/11/10 01:36:56;;;;;;;44.30;19.45;;;5.00;99.90;;;;;;4130564;28;20484;-76
2021/11/10 01:38:56;;;;;;;38.55;18.98;;;5.00;99.90;;;;;;4129273;28;20030;-78
2021/11/10 01:40:57;;;;;;;32.75;17.98;;;4.90;99.90;;;;;;4130633;28;20042;-78
2021/11/10 01:43:00;;;;;;;53.08;21.35;;;4.90;99.90;;;;;;4130852;28;20080;-78
2021/11/10 01:45:00;;;;;;;34.38;19.92;;;4.80;99.90;;;;;;4120754;28;20061;-78
2021/11/10 01:47:08;;;;;;;42.95;20.92;;;4.80;99.90;;;;;;4123913;28;20027;-78
2021/11/10 01:49:10;;;;;;;42.95;19.45;;;4.70;99.90;;;;;;4129792;28;20040;-78
2021/11/10 01:51:11;;;;;;;37.78;20.00;;;4.70;99.90;;;;;;4129761;28;20038;-78
2021/11/10 01:53:12;;;;;;;43.33;20.08;;;4.70;99.90;;;;;;4145567;28;20399;-78
2021/11/10 01:55:14;;;;;;;38.40;20.30;;;4.70;99.90;;;;;;4127753;28;20603;-77
2021/11/10 01:57:15;;;;;;;41.00;19.70;;;4.80;99.90;;;;;;4131700;28;20663;-78
2021/11/10 01:59:34;;;;;;;36.50;19.80;;;4.70;99.90;;;;;;4128722;28;20038;-78
2021/11/10 02:01:45;;;;;;;32.05;19.05;;;4.70;99.90;;;;;;4129947;28;20046;-79
2021/11/10 02:03:46;;;;;;;42.72;19.27;;;4.60;99.90;;;;;;4145317;28;20022;-78
2021/11/10 02:05:48;;;;;;;45.92;20.40;;;4.50;99.90;;;;;;4129681;28;20034;-78
2021/11/10 02:07:49;;;;;;;41.05;20.73;;;4.50;99.90;;;;;;4127950;28;20780;-78
2021/11/10 02:09:51;;;;;;;44.15;20.17;;;4.40;99.90;;;;;;4130113;28;20046;-78
2021/11/10 02:11:53;;;;;;;39.05;18.15;;;4.40;99.90;;;;;;4131024;28;20038;-77
2021/11/10 02:13:55;;;;;;;36.45;19.33;;;4.30;99.90;;;;;;4128402;28;20038;-78
2021/11/10 02:15:55;;;;;;;38.53;19.67;;;4.30;99.90;;;;;;4130213;28;20121;-79
2021/11/10 02:18:01;;;;;;;42.20;20.45;;;4.30;99.90;;;;;;4127330;28;20038;-78
2021/11/10 02:20:05;;;;;;;47.03;20.98;;;4.30;99.90;;;;;;4128639;28;20031;-78
2021/11/10 02:22:06;;;;;;;41.33;20.27;;;4.30;99.90;;;;;;4122545;28;20085;-79
2021/11/10 02:24:07;;;;;;;45.08;19.20;;;4.20;99.90;;;;;;4144187;28;20402;-78
2021/11/10 02:26:12;;;;;;;42.17;19.80;;;4.20;99.90;;;;;;4129283;28;20058;-78
2021/11/10 02:28:13;;;;;;;37.03;19.80;;;4.30;99.90;;;;;;4144811;28;20034;-79
2021/11/10 02:30:17;;;;;;;42.20;21.55;;;4.30;99.90;;;;;;4127693;28;20092;-78
2021/11/10 02:32:17;;;;;;;;;;;4.40;99.90;;;;;;4129076;28;20050;-78
2021/11/10 02:34:18;;;;;;;46.65;19.98;;;4.40;99.90;;;;;;4127650;28;19933;-78
2021/11/10 02:36:19;;;;;;;55.22;21.80;;;4.40;99.90;;;;;;4122023;28;20375;-77
2021/11/10 02:38:20;;;;;;;47.55;21.88;;;4.50;99.90;;;;;;4128770;28;20041;-78
2021/11/10 02:40:21;;;;;;;48.58;22.65;;;4.60;99.90;;;;;;4125153;28;20049;-78
2021/11/10 02:42:24;;;;;;;40.50;20.90;;;4.60;99.90;;;;;;4128813;28;20042;-78
2021/11/10 02:44:24;;;;;;;39.35;21.67;;;4.70;99.90;;;;;;4129723;28;20045;-79
2021/11/10 02:46:25;;;;;;;39.35;23.15;;;4.90;99.90;;;;;;4118776;28;20121;-78
2021/11/10 02:48:26;;;;;;;42.03;20.83;;;5.00;99.90;;;;;;4126685;28;20049;-78
2021/11/10 02:50:31;;;;;;;47.67;22.58;;;5.10;99.90;;;;;;4127841;28;20586;-78
2021/11/10 02:52:32;;;;;;;35.78;20.00;;;5.20;99.90;;;;;;4130586;28;20061;-79
2021/11/10 02:54:37;;;;;;;46.58;22.63;;;5.30;99.90;;;;;;4127575;28;20050;-78
2021/11/10 02:56:37;;;;;;;40.08;20.80;;;5.40;99.90;;;;;;4127603;28;20038;-78
2021/11/10 02:58:38;;;;;;;34.20;20.80;;;5.40;99.90;;;;;;4125898;28;20414;-79
2021/11/10 03:00:38;;;;;;;40.75;20.65;;;5.40;99.90;;;;;;4127383;28;20038;-79
2021/11/10 03:02:39;;;;;;;34.58;18.83;;;5.50;99.90;;;;;;4128057;28;20112;-78
2021/11/10 03:04:46;;;;;;;33.78;18.08;;;5.60;99.90;;;;;;4129982;28;20077;-78
2021/11/10 03:06:46;;;;;;;35.58;17.80;;;5.60;99.90;;;;;;4129214;28;20054;-79
2021/11/10 03:08:47;;;;;;;28.60;18.35;;;5.60;99.90;;;;;;4128501;28;20038;-78
2021/11/10 03:10:48;;;;;;;36.30;18.55;;;5.60;99.90;;;;;;4120541;28;20501;-78
2021/11/10 03:12:49;;;;;;;40.05;19.27;;;5.50;99.90;;;;;;4128988;28;20030;-77
2021/11/10 03:14:50;;;;;;;38.00;20.27;;;5.50;99.90;;;;;;4129307;28;20035;-78
2021/11/10 03:16:51;;;;;;;32.22;17.48;;;5.40;99.90;;;;;;4128817;28;20382;-78
2021/11/10 03:18:51;;;;;;;32.97;19.10;;;5.30;99.90;;;;;;4119161;28;20041;-78
2021/11/10 03:20:52;;;;;;;31.42;16.77;;;5.30;99.90;;;;;;4127533;28;20062;-78
2021/11/10 03:22:52;;;;;;;31.20;17.63;;;5.20;99.90;;;;;;4130350;28;20471;-77
2021/11/10 03:24:53;;;;;;;33.78;18.40;;;5.10;99.90;;;;;;4130061;28;20061;-78
2021/11/10 03:26:53;;;;;;;43.83;19.67;;;5.10;99.90;;;;;;4130293;28;20113;-78
2021/11/10 03:28:54;;;;;;;37.10;18.85;;;5.00;99.90;;;;;;4125738;28;20043;-78
2021/11/10 03:30:55;;;;;;;37.22;18.40;;;4.90;99.90;;;;;;4131033;28;20083;-79
2021/11/10 03:32:56;;;;;;;33.03;17.63;;;4.80;99.90;;;;;;4124602;28;20121;-79
2021/11/10 03:34:57;;;;;;;35.92;19.15;;;4.70;99.90;;;;;;4126353;28;20089;-78
2021/11/10 03:36:57;;;;;;;37.30;19.95;;;4.60;99.90;;;;;;4126023;28;20129;-79
2021/11/10 03:38:58;;;;;;;38.63;18.77;;;4.60;99.90;;;;;;4129125;28;20092;-78
2021/11/10 03:41:01;;;;;;;31.88;19.15;;;4.50;99.90;;;;;;4129395;28;20073;-78
2021/11/10 03:43:02;;;;;;;35.38;20.35;;;4.40;99.90;;;;;;4129535;28;20429;-78
2021/11/10 03:45:03;;;;;;;45.30;20.33;;;4.40;99.90;;;;;;4131095;28;20106;-78
2021/11/10 03:47:04;;;;;;;42.95;19.65;;;4.40;99.90;;;;;;4129894;28;20026;-79
2021/11/10 03:49:05;;;;;;;37.55;19.92;;;4.40;99.90;;;;;;4128476;28;20679;-79
2021/11/10 03:51:06;;;;;;;44.72;21.88;;;4.40;99.90;;;;;;4127517;28;20126;-79
2021/11/10 03:53:07;;;;;;;32.40;19.08;;;4.40;99.90;;;;;;4127966;28;20047;-79
2021/11/10 03:55:07;;;;;;;47.33;21.17;;;4.40;99.90;;;;;;4127565;28;20110;-79
2021/11/10 03:57:08;;;;;;;35.53;20.60;;;4.40;99.90;;;;;;4128124;28;20085;-79
2021/11/10 03:59:09;;;;;;;39.55;19.83;;;4.40;99.90;;;;;;4128357;28;20133;-77
2021/11/10 04:01:10;;;;;;;45.33;21.58;;;4.30;99.90;;;;;;4128758;28;20046;-78
2021/11/10 04:03:11;;;;;;;38.38;19.65;;;4.20;99.90;;;;;;4127180;28;20031;-78
2021/11/10 04:05:12;;;;;;;42.75;21.27;;;4.10;99.90;;;;;;4125383;28;20474;-78
2021/11/10 04:07:13;;;;;;;41.65;21.52;;;4.10;99.90;;;;;;4128342;28;20105;-78
2021/11/10 04:09:14;;;;;;;42.17;21.42;;;4.10;99.90;;;;;;4129154;28;20372;-78
2021/11/10 04:11:14;;;;;;;33.42;21.27;;;4.10;99.90;;;;;;4128330;28;20025;-77
2021/11/10 04:13:16;;;;;;;38.63;21.95;;;4.10;99.90;;;;;;4129518;28;20042;-78
2021/11/10 04:15:16;;;;;;;41.47;22.58;;;4.20;99.90;;;;;;4128424;28;20045;-77
2021/11/10 04:17:17;;;;;;;42.55;20.23;;;4.20;99.90;;;;;;4128237;28;20023;-78
2021/11/10 04:19:17;;;;;;;45.42;22.48;;;4.30;99.90;;;;;;4127278;28;20031;-78
2021/11/10 04:21:19;;;;;;;46.58;20.70;;;4.30;99.90;;;;;;4127539;28;20038;-78
2021/11/10 04:23:19;;;;;;;48.58;20.98;;;4.30;99.90;;;;;;4128216;28;20402;-78
2021/11/10 04:25:20;;;;;;;38.83;22.50;;;4.30;99.90;;;;;;4129305;28;20030;-78
2021/11/10 04:27:21;;;;;;;33.08;19.67;;;4.30;99.90;;;;;;4127421;28;20121;-78
2021/11/10 04:29:22;;;;;;;39.58;19.83;;;4.40;99.90;;;;;;4128641;28;20443;-78
2021/11/10 04:31:23;;;;;;;45.90;21.70;;;4.40;99.90;;;;;;4127968;28;20042;-78
2021/11/10 04:33:24;;;;;;;32.58;20.10;;;4.40;99.90;;;;;;4129670;28;20050;-78
2021/11/10 04:35:25;;;;;;;38.65;20.27;;;4.40;99.90;;;;;;4127572;28;20477;-77
2021/11/10 04:37:26;;;;;;;33.53;19.63;;;4.50;99.90;;;;;;4129205;28;20046;-77
2021/11/10 04:39:26;;;;;;;35.95;19.25;;;4.50;99.90;;;;;;4127720;28;20023;-77
2021/11/10 04:41:27;;;;;;;40.22;20.27;;;4.60;99.90;;;;;;4128846;28;20487;-78
2021/11/10 04:43:28;;;;;;;41.42;19.85;;;4.60;99.90;;;;;;4128636;28;20478;-78
2021/11/10 04:45:32;;;;;;;34.40;20.50;;;4.60;99.90;;;;;;4130161;28;20034;-77
2021/11/10 04:47:34;;;;;;;35.53;17.70;;;4.70;99.90;;;;;;4119426;28;20034;-77
2021/11/10 04:49:34;;;;;;;35.42;19.67;;;4.70;99.90;;;;;;4128048;28;20039;-77
2021/11/10 04:51:35;;;;;;;31.13;19.67;;;4.70;99.90;;;;;;4127480;28;20390;-77
2021/11/10 04:53:38;;;;;;;30.00;16.27;;;4.70;99.90;;;;;;4127051;28;20045;-77
2021/11/10 04:55:40;;;;;;;28.15;19.05;;;4.80;99.90;;;;;;4126087;28;20541;-77
2021/11/10 04:57:41;;;;;;;33.13;17.77;;;4.80;99.90;;;;;;4126009;28;20034;-78
2021/11/10 04:59:42;;;;;;;31.50;17.60;;;4.80;99.90;;;;;;4115541;28;20031;-77
2021/11/10 05:01:44;;;;;;;26.75;17.02;;;4.80;99.90;;;;;;4124505;28;20042;-77
2021/11/10 05:03:45;;;;;;;30.20;18.60;;;4.70;99.90;;;;;;4125503;28;20613;-77
2021/11/10 05:05:46;;;;;;;33.10;17.17;;;4.60;99.90;;;;;;4126688;28;20034;-78
2021/11/10 05:07:48;;;;;;;33.03;18.45;;;4.50;99.90;;;;;;4126211;28;20038;-77
2021/11/10 05:09:51;;;;;;;28.25;17.00;;;4.40;99.90;;;;;;4129685;28;20038;-77
2021/11/10 05:11:51;;;;;;;35.10;18.35;;;4.40;99.90;;;;;;4126407;28;20370;-78
2021/11/10 05:13:52;;;;;;;30.70;18.92;;;4.40;99.90;;;;;;4125797;28;20035;-77
2021/11/10 05:15:53;;;;;;;40.30;18.73;;;4.40;99.90;;;;;;4122663;28;20088;-77
2021/11/10 05:17:53;;;;;;;31.83;19.20;;;4.40;99.90;;;;;;4129723;28;20034;-78
2021/11/10 05:19:54;;;;;;;29.15;19.17;;;4.30;99.90;;;;;;4131557;28;20335;-77
2021/11/10 05:21:55;;;;;;;39.33;19.58;;;4.30;99.90;;;;;;4128425;28;20045;-78
2021/11/10 05:23:55;;;;;;;40.25;18.45;;;4.40;99.90;;;;;;4129026;28;20038;-78
2021/11/10 05:25:56;;;;;;;39.47;18.55;;;4.40;99.90;;;;;;4130389;28;20091;-78
2021/11/10 05:27:57;;;;;;;35.47;18.05;;;4.50;99.90;;;;;;4133064;28;20104;-78
2021/11/10 05:29:57;;;;;;;31.33;17.95;;;4.50;99.90;;;;;;4129048;28;20050;-77
2021/11/10 05:31:58;;;;;;;37.45;18.30;;;4.40;99.90;;;;;;4126638;28;20562;-77
2021/11/10 05:33:58;;;;;;;29.60;17.85;;;4.40;99.90;;;;;;4131006;28;20485;-77
2021/11/10 05:35:59;;;;;;;30.17;18.40;;;4.30;99.90;;;;;;4131036;28;20117;-78
2021/11/10 05:38:00;;;;;;;29.40;17.63;;;4.30;99.90;;;;;;4131053;28;20027;-78
2021/11/10 05:40:01;;;;;;;31.92;17.92;;;4.20;99.90;;;;;;4129879;28;20077;-78
2021/11/10 05:42:02;;;;;;;29.13;18.27;;;4.20;99.90;;;;;;4131929;28;20486;-77
2021/11/10 05:44:02;;;;;;;31.45;17.40;;;4.10;99.90;;;;;;4129465;28;20108;-78
2021/11/10 05:46:04;;;;;;;30.90;18.60;;;4.10;99.90;;;;;;4130912;28;20620;-77
2021/11/10 05:48:05;;;;;;;29.63;17.70;;;4.10;99.90;;;;;;4130359;28;20026;-77
2021/11/10 05:50:08;;;;;;;31.38;17.92;;;4.10;99.90;;;;;;4146280;28;20137;-77
2021/11/10 05:52:09;;;;;;;36.30;17.33;;;4.10;99.90;;;;;;4130976;28;20038;-76
2021/11/10 05:54:11;;;;;;;28.38;16.70;;;4.00;99.90;;;;;;4128990;28;20053;-77
2021/11/10 05:56:19;;;;;;;34.60;18.40;;;4.00;99.90;;;;;;4132531;28;20096;-77
2021/11/10 05:58:21;;;;;;;37.17;18.00;;;4.00;99.90;;;;;;4119614;28;20022;-77
2021/11/10 06:00:22;;;;;;;32.33;19.13;;;4.00;99.90;;;;;;4129934;28;20034;-77
2021/11/10 06:02:23;;;;;;;36.95;18.40;;;4.00;99.90;;;;;;4128652;28;20050;-77
2021/11/10 06:04:23;;;;;;;36.72;19.25;;;4.00;99.90;;;;;;4129751;28;20030;-77
2021/11/10 06:06:27;;;;;;;43.22;19.98;;;4.00;99.90;;;;;;4129703;28;20116;-77
2021/11/10 06:08:28;;;;;;;29.85;18.20;;;4.00;99.90;;;;;;4130000;28;20399;-77
2021/11/10 06:10:28;;;;;;;25.13;16.45;;;4.00;99.90;;;;;;4128587;28;20121;-77
2021/11/10 06:12:29;;;;;;;32.67;18.77;;;4.00;99.90;;;;;;4128997;28;20141;-77
2021/11/10 06:14:30;;;;;;;30.83;18.85;;;4.00;99.90;;;;;;4128529;28;20037;-77
2021/11/10 06:16:31;;;;;;;33.85;20.00;;;4.00;99.90;;;;;;4130133;28;20050;-78
2021/11/10 06:18:31;;;;;;;26.20;18.02;;;4.00;99.90;;;;;;4124497;28;20078;-77
2021/11/10 06:20:32;;;;;;;32.40;17.95;;;4.00;99.90;;;;;;4127400;28;20049;-77
2021/11/10 06:22:34;;;;;;;36.05;18.35;;;4.00;99.90;;;;;;4126515;28;20117;-77
2021/11/10 06:24:35;;;;;;;35.38;19.88;;;4.00;99.90;;;;;;4130457;28;20449;-77
2021/11/10 06:26:36;;;;;;;34.05;19.70;;;3.90;99.90;;;;;;4128518;28;20153;-78
2021/11/10 06:28:36;;;;;;;37.10;18.42;;;3.80;99.90;;;;;;4127563;28;20554;-79
2021/11/10 06:30:37;;;;;;;38.03;18.88;;;3.70;99.90;;;;;;4129392;28;20137;-79
2021/11/10 06:32:38;;;;;;;42.58;21.73;;;3.70;99.90;;;;;;4128508;28;20486;-77
2021/11/10 06:34:38;;;;;;;39.15;21.60;;;3.60;99.90;;;;;;4128593;28;20038;-77
2021/11/10 06:36:39;;;;;;;41.03;21.00;;;3.50;99.90;;;;;;4126407;28;20040;-76
2021/11/10 06:38:39;;;;;;;37.83;21.38;;;3.50;99.90;;;;;;4129632;28;20061;-78
2021/11/10 06:40:40;;;;;;;39.20;19.90;;;3.50;99.90;;;;;;4128921;28;20034;-77
2021/11/10 06:42:42;;;;;;;41.42;20.63;;;3.40;99.90;;;;;;4127176;28;20133;-78
2021/11/10 06:44:42;;;;;;;41.60;20.65;;;3.40;99.90;;;;;;4120042;28;20039;-78
2021/11/10 06:46:43;;;;;;;36.53;21.83;;;3.40;99.90;;;;;;4127099;28;20101;-77
2021/11/10 06:48:44;;;;;;;33.97;19.88;;;3.50;99.90;;;;;;4119072;28;20046;-78
2021/11/10 06:50:44;;;;;;;38.58;22.45;;;3.60;99.90;;;;;;4129030;28;20085;-78
2021/11/10 06:52:46;;;;;;;39.05;20.52;;;3.60;99.90;;;;;;4129922;28;20125;-77
2021/11/10 06:54:50;;;;;;;39.80;23.25;;;3.60;99.90;;;;;;4128707;28;20709;-77
2021/11/10 06:56:51;;;;;;;37.47;22.55;;;3.70;99.90;;;;;;4128155;28;20031;-77
2021/11/10 06:58:52;;;;;;;45.13;22.75;;;3.70;99.90;;;;;;4125363;28;20031;-79
2021/11/10 07:00:52;;;;;;;45.42;22.70;;;3.80;99.90;;;;;;4129715;28;20034;-79
2021/11/10 07:02:53;;;;;;;45.67;22.25;;;3.80;99.90;;;;;;4127611;28;20045;-77
2021/11/10 07:04:54;;;;;;;36.10;21.08;;;3.80;99.90;;;;;;4128082;28;20030;-78
2021/11/10 07:06:54;;;;;;;45.75;21.40;;;3.80;99.90;;;;;;4127324;28;20034;-78
2021/11/10 07:08:55;;;;;;;39.60;22.02;;;3.90;99.90;;;;;;4137361;28;20034;-78
2021/11/10 07:10:56;;;;;;;35.35;21.83;;;3.90;99.90;;;;;;4127658;28;20057;-77
2021/11/10 07:12:56;;;;;;;40.60;20.58;;;4.00;99.90;;;;;;4125466;28;20034;-77
2021/11/10 07:15:00;;;;;;;41.42;21.20;;;4.10;99.90;;;;;;4129710;28;20069;-77
2021/11/10 07:17:01;;;;;;;38.30;19.92;;;4.10;99.90;;;;;;4129999;28;21548;-77
2021/11/10 07:19:02;;;;;;;31.63;19.88;;;4.20;99.90;;;;;;4130421;28;20089;-77
2021/11/10 07:21:03;;;;;;;32.65;18.65;;;4.20;99.90;;;;;;4129406;28;20039;-77
2021/11/10 07:23:04;;;;;;;42.08;20.80;;;4.30;99.90;;;;;;4130205;28;20686;-77
2021/11/10 07:25:05;;;;;;;41.90;20.52;;;4.30;99.90;;;;;;4129066;28;20121;-77
2021/11/10 07:27:06;;;;;;;34.75;20.00;;;4.40;99.90;;;;;;4122872;28;20109;-77
2021/11/10 07:29:07;;;;;;;33.72;19.58;;;4.60;99.90;;;;;;4129316;28;20145;-77
2021/11/10 07:31:08;;;;;;;42.08;21.13;;;4.60;99.90;;;;;;4140253;28;20038;-77
2021/11/10 07:33:09;;;;;;;35.28;20.20;;;4.60;99.90;;;;;;4129240;28;20034;-77
2021/11/10 07:35:11;;;;;;;32.90;18.67;;;4.60;99.90;;;;;;4127756;28;20035;-78
2021/11/10 07:37:11;;;;;;;33.55;18.75;;;4.60;99.90;;;;;;4127601;28;20850;-77
2021/11/10 07:39:13;;;;;;;35.35;19.13;;;4.70;99.90;;;;;;4125093;28;20038;-77
2021/11/10 07:41:16;;;;;;;30.25;19.38;;;4.70;99.90;;;;;;4123511;28;20471;-78
2021/11/10 07:43:17;;;;;;;31.67;18.98;;;4.70;99.90;;;;;;4127445;28;20494;-77
2021/11/10 07:45:24;;;;;;;29.13;18.98;;;4.80;99.90;;;;;;4144434;28;20100;-77
2021/11/10 07:47:28;;;;;;;37.10;19.98;;;4.80;99.90;;;;;;4130215;28;20096;-78
2021/11/10 07:49:29;;;;;;;34.88;20.05;;;4.90;99.90;;;;;;4128715;28;20031;-78
2021/11/10 07:51:30;;;;;;;27.08;17.15;;;4.90;99.90;;;;;;4130757;28;20048;-77
2021/11/10 07:53:30;;;;;;;34.95;18.20;;;5.00;99.90;;;;;;4128326;28;20035;-77
2021/11/10 07:55:32;;;;;;;29.88;17.13;;;5.00;99.90;;;;;;4122937;28;20101;-77
2021/11/10 07:57:34;;;;;;;34.05;19.30;;;5.00;99.90;;;;;;4118276;28;20038;-77
2021/11/10 07:59:35;;;;;;;32.17;18.52;;;5.10;99.90;;;;;;4125964;28;20453;-77
2021/11/10 08:01:35;;;;;;;28.75;17.30;;;5.20;99.90;;;;;;4127504;28;20026;-79
2021/11/10 08:03:36;;;;;;;28.13;18.35;;;5.20;99.90;;;;;;4129610;28;20108;-77
2021/11/10 08:05:37;;;;;;;28.27;17.52;;;5.30;99.90;;;;;;4130399;28;20037;-77
2021/11/10 08:07:38;;;;;;;30.33;17.70;;;5.30;99.90;;;;;;4128129;28;20129;-76
2021/11/10 08:09:39;;;;;;;37.03;19.73;;;5.40;99.90;;;;;;4128397;28;20030;-77
2021/11/10 08:11:39;;;;;;;47.65;24.85;;;5.30;99.90;;;;;;4128196;28;20027;-77
2021/11/10 08:13:40;;;;;;;25.60;17.05;;;5.40;99.90;;;;;;4119173;28;20321;-77
2021/11/10 08:15:41;;;;;;;40.78;20.08;;;5.40;99.90;;;;;;4128891;28;20041;-77
2021/11/10 08:17:43;;;;;;;32.20;18.73;;;5.50;99.90;;;;;;4127930;28;20026;-77
2021/11/10 08:19:44;;;;;;;34.80;18.83;;;5.50;99.90;;;;;;4127692;28;20137;-77
2021/11/10 08:21:44;;;;;;;26.30;16.65;;;5.60;99.90;;;;;;4127242;28;20030;-77
2021/11/10 08:23:45;;;;;;;32.97;17.10;;;5.70;99.90;;;;;;4129685;28;20026;-77
2021/11/10 08:25:50;;;;;;;26.25;19.20;;;5.70;99.90;;;;;;4129599;28;20050;-77
2021/11/10 08:27:51;;;;;;;28.17;18.02;;;5.80;99.90;;;;;;4125754;28;20109;-77
2021/11/10 08:29:52;;;;;;;51.65;35.30;;;5.80;99.90;;;;;;4130354;28;20129;-78
2021/11/10 08:31:53;;;;;;;27.70;17.77;;;5.80;99.90;;;;;;4126993;28;20035;-77
2021/11/10 08:33:54;;;;;;;26.10;17.98;;;5.80;99.90;;;;;;4119617;28;20105;-77
2021/11/10 08:35:56;;;;;;;30.05;19.23;;;5.90;99.90;;;;;;4126471;28;20042;-77
2021/11/10 08:37:57;;;;;;;47.70;27.25;;;6.00;99.90;;;;;;4128740;28;20030;-78
2021/11/10 08:39:59;;;;;;;87.65;59.17;;;6.10;99.90;;;;;;4126353;28;20039;-77
2021/11/10 08:42:01;;;;;;;32.25;19.38;;;6.20;99.90;;;;;;4129324;28;20038;-78
2021/11/10 08:44:02;;;;;;;30.38;17.98;;;6.30;99.90;;;;;;4127633;28;20038;-78
2021/11/10 08:46:03;;;;;;;29.48;15.98;;;6.40;99.90;;;;;;4128579;28;20065;-78
2021/11/10 08:48:05;;;;;;;26.50;16.75;;;6.60;99.90;;;;;;4127071;28;20042;-78
2021/11/10 08:50:08;;;;;;;24.90;16.23;;;6.70;99.90;;;;;;4126329;28;20061;-78
2021/11/10 08:52:10;;;;;;;27.55;17.15;;;6.80;99.90;;;;;;4128078;28;20027;-78
2021/11/10 08:54:11;;;;;;;27.63;15.32;;;6.90;99.90;;;;;;4129228;28;20073;-78
2021/11/10 08:56:12;;;;;;;34.17;16.02;;;7.10;99.90;;;;;;4120939;28;20443;-78
2021/11/10 08:58:14;;;;;;;40.58;16.80;;;7.30;99.90;;;;;;4130833;28;20533;-78
2021/11/10 09:00:19;;;;;;;29.30;13.57;;;7.40;99.90;;;;;;4132076;28;20046;-78
2021/11/10 09:02:20;;;;;;;20.63;13.73;;;7.60;99.90;;;;;;4130505;28;20113;-77
2021/11/10 09:04:22;;;;;;;23.65;14.00;;;7.70;99.90;;;;;;4131181;28;20531;-77
2021/11/10 09:06:22;;;;;;;33.03;19.73;;;7.90;99.90;;;;;;4133447;28;20344;-77
2021/11/10 09:08:26;;;;;;;30.92;15.45;;;8.00;99.90;;;;;;4132478;28;20049;-77
2021/11/10 09:10:27;;;;;;;24.90;14.35;;;8.10;99.90;;;;;;4131940;28;20038;-77
2021/11/10 09:12:28;;;;;;;24.65;13.88;;;8.20;99.90;;;;;;4132064;28;20033;-78
2021/11/10 09:14:28;;;;;;;29.10;13.20;;;8.30;99.90;;;;;;4125910;28;20041;-78
2021/11/10 09:16:29;;;;;;;24.50;13.15;;;8.40;99.90;;;;;;4144874;28;20058;-77
2021/11/10 09:18:30;;;;;;;25.13;15.18;;;8.40;99.90;;;;;;4131178;28;20049;-78
2021/11/10 09:20:32;;;;;;;23.33;12.73;;;8.50;99.90;;;;;;4133188;28;20038;-78
2021/11/10 09:22:33;;;;;;;21.75;13.43;;;8.50;99.90;;;;;;4121600;28;20023;-77
2021/11/10 09:24:35;;;;;;;35.72;14.80;;;8.50;99.90;;;;;;4129553;28;20490;-77
2021/11/10 09:26:37;;;;;;;28.75;13.70;;;8.60;99.90;;;;;;4145206;28;20057;-77
2021/11/10 09:28:40;;;;;;;21.15;14.48;;;8.70;99.90;;;;;;4131608;28;20042;-77
2021/11/10 09:30:43;;;;;;;26.70;13.23;;;8.90;99.90;;;;;;4130567;28;20046;-77
2021/11/10 09:32:46;;;;;;;24.77;14.93;;;8.90;99.90;;;;;;4131619;28;20425;-77
2021/11/10 09:34:46;;;;;;;20.08;13.32;;;9.10;99.90;;;;;;4131138;28;20108;-77
2021/11/10 09:36:47;;;;;;;27.52;15.55;;;9.00;99.90;;;;;;4132855;28;20035;-78
2021/11/10 09:38:49;;;;;;;27.15;14.05;;;9.00;99.90;;;;;;4130792;28;20402;-78
2021/11/10 09:40:51;;;;;;;27.45;14.45;;;9.20;99.90;;;;;;4129407;28;20617;-77
2021/11/10 09:42:53;;;;;;;27.77;14.63;;;9.20;99.90;;;;;;4130007;28;20030;-77
2021/11/10 09:44:54;;;;;;;26.75;12.57;;;9.30;99.90;;;;;;4131248;28;20092;-78
2021/11/10 09:46:55;;;;;;;22.65;13.25;;;9.40;99.90;;;;;;4132069;28;20053;-78
2021/11/10 09:48:58;;;;;;;26.90;14.60;;;9.50;99.90;;;;;;4129961;28;20359;-78
2021/11/10 09:51:00;;;;;;;21.70;13.13;;;9.60;99.90;;;;;;4131593;28;20088;-79
2021/11/10 09:53:01;;;;;;;25.98;13.27;;;9.60;99.90;;;;;;4130136;28;20082;-77
2021/11/10 09:55:02;;;;;;;27.58;13.05;;;9.60;99.90;;;;;;4125514;28;20603;-77
2021/11/10 09:57:03;;;;;;;25.63;13.75;;;9.60;99.90;;;;;;4129802;28;20030;-77
2021/11/10 09:59:05;;;;;;;24.20;13.30;;;9.60;99.90;;;;;;4121756;28;20497;-77
2021/11/10 10:01:08;;;;;;;29.15;13.73;;;9.60;99.90;;;;;;4130522;28;20034;-77
2021/11/10 10:03:11;;;;;;;33.15;14.73;;;9.60;99.90;;;;;;4130185;28;20042;-77
2021/11/10 10:05:16;;;;;;;26.08;13.52;;;9.60;99.90;;;;;;4129689;28;20621;-77
2021/11/10 10:07:17;;;;;;;27.60;13.82;;;9.70;99.90;;;;;;4129979;28;20067;-77
2021/11/10 10:09:18;;;;;;;27.08;14.73;;;9.70;99.90;;;;;;4129482;28;20122;-78
2021/11/10 10:11:19;;;;;;;26.60;13.50;;;9.70;99.90;;;;;;4130837;28;20379;-78
2021/11/10 10:13:21;;;;;;;35.13;14.43;;;9.70;99.90;;;;;;4130134;28;20123;-78
2021/11/10 10:15:22;;;;;;;28.52;14.23;;;9.90;99.90;;;;;;4128458;28;20035;-78
2021/11/10 10:17:47;;;;;;;28.05;15.55;;;10.10;99.90;;;;;;4128247;28;20118;-77
2021/11/10 10:19:47;;;;;;;33.15;14.02;;;10.30;99.90;;;;;;4130810;28;20031;-78
2021/11/10 10:21:59;;;;;;;27.88;13.55;;;10.50;99.90;;;;;;4126312;28;20030;-78
2021/11/10 10:24:01;;;;;;;24.58;14.00;;;10.60;99.90;;;;;;4128362;28;20035;-77